aviador You're here:

KLAS Decoded Metar

LAS VEGAS in NV, USA
Report Time2018-07-22 14:56:00
UTC Time2018-07-22 15:58:48
Flight Rules vfr VFR
Wind070° at 04 kt
W.Decomp.*RWY 07: 3.9 kt HW 1 kt LCW
RWY 01: 2.8 kt HW 2.8 kt RCW
W.Rank070° ranks 15
Current wind is below 070° avg. (6.8)
Visibility9999 m
Phenomena:N/A
Clouds:Few 130 Hf
Few 250 Hf
Expected CloudBase > 4,800 ft AGL from Temp-Dew spread
CeilingNone
Temp29°C (ISA +18)
Dew Point17°C (48% RH)
Heat Index29.4°C
QNH1019 hPa
Density Alt4,226 ft
Elevation2,087 ft
Report Wrong Elevation
Raw Report
KLAS 221456Z 07004KT 10SM FEW130 FEW250 29/17 A3008 RMK AO2 SLP158
T02890167 51015 $=

Extra information for KLAS:More info

Metar Taf Metar & Taf Last 4 Metars F.Rules Stats Wind Profile Meteogram Temp Stats Airport Information Weather charts Add Link Nearby VenuesMetar ALERT Operation Metar Decoded Social comments

AIRNAV info for KLAS